sensor_id;sensor_type;location;lat;lon;timestamp;P1;durP1;ratioP1;P2;durP2;ratioP2
26181;SDS011;13927;51.534;11.866;2022-07-04T00:00:21;5.20;;;2.55;;
26181;SDS011;13927;51.534;11.866;2022-07-04T00:02:48;4.63;;;2.72;;
26181;SDS011;13927;51.534;11.866;2022-07-04T00:05:15;4.93;;;3.03;;
26181;SDS011;13927;51.534;11.866;2022-07-04T00:07:44;4.18;;;3.20;;
26181;SDS011;13927;51.534;11.866;2022-07-04T00:10:15;2.72;;;2.53;;
26181;SDS011;13927;51.534;11.866;2022-07-04T00:12:43;5.00;;;2.90;;
26181;SDS011;13927;51.534;11.866;2022-07-04T00:15:10;5.35;;;3.03;;
26181;SDS011;13927;51.534;11.866;2022-07-04T00:17:37;3.75;;;3.15;;
26181;SDS011;13927;51.534;11.866;2022-07-04T00:20:03;5.57;;;3.20;;
26181;SDS011;13927;51.534;11.866;2022-07-04T00:22:31;4.22;;;3.08;;
26181;SDS011;13927;51.534;11.866;2022-07-04T00:24:57;5.25;;;3.00;;
26181;SDS011;13927;51.534;11.866;2022-07-04T00:27:23;4.85;;;3.45;;
26181;SDS011;13927;51.534;11.866;2022-07-04T00:29:49;4.30;;;2.75;;
26181;SDS011;13927;51.534;11.866;2022-07-04T00:32:15;5.05;;;3.00;;
26181;SDS011;13927;51.534;11.866;2022-07-04T00:34:41;5.70;;;3.15;;
26181;SDS011;13927;51.534;11.866;2022-07-04T00:37:07;3.95;;;2.58;;
26181;SDS011;13927;51.534;11.866;2022-07-04T00:39:33;7.90;;;2.88;;
26181;SDS011;13927;51.534;11.866;2022-07-04T00:41:58;3.78;;;2.80;;
26181;SDS011;13927;51.534;11.866;2022-07-04T00:44:24;3.10;;;2.75;;
26181;SDS011;13927;51.534;11.866;2022-07-04T00:46:50;6.32;;;3.10;;
26181;SDS011;13927;51.534;11.866;2022-07-04T00:49:16;4.47;;;3.00;;
26181;SDS011;13927;51.534;11.866;2022-07-04T00:51:43;6.13;;;2.95;;
26181;SDS011;13927;51.534;11.866;2022-07-04T00:54:12;6.18;;;3.03;;
26181;SDS011;13927;51.534;11.866;2022-07-04T00:56:41;4.00;;;3.03;;
26181;SDS011;13927;51.534;11.866;2022-07-04T00:59:08;7.00;;;3.85;;
26181;SDS011;13927;51.534;11.866;2022-07-04T01:01:34;3.88;;;3.20;;
26181;SDS011;13927;51.534;11.866;2022-07-04T01:04:01;5.53;;;3.72;;
26181;SDS011;13927;51.534;11.866;2022-07-04T01:06:28;8.43;;;3.55;;
26181;SDS011;13927;51.534;11.866;2022-07-04T01:08:55;6.10;;;3.30;;
26181;SDS011;13927;51.534;11.866;2022-07-04T01:11:21;2.85;;;2.65;;
26181;SDS011;13927;51.534;11.866;2022-07-04T01:13:47;5.20;;;3.05;;
26181;SDS011;13927;51.534;11.866;2022-07-04T01:16:13;4.82;;;2.88;;
26181;SDS011;13927;51.534;11.866;2022-07-04T01:18:39;5.95;;;2.92;;
26181;SDS011;13927;51.534;11.866;2022-07-04T01:21:05;3.85;;;2.63;;
26181;SDS011;13927;51.534;11.866;2022-07-04T01:23:31;4.03;;;3.53;;
26181;SDS011;13927;51.534;11.866;2022-07-04T01:26:01;5.53;;;3.08;;
26181;SDS011;13927;51.534;11.866;2022-07-04T01:28:27;3.90;;;3.05;;
26181;SDS011;13927;51.534;11.866;2022-07-04T01:30:53;8.27;;;3.00;;
26181;SDS011;13927;51.534;11.866;2022-07-04T01:33:19;7.30;;;3.50;;
26181;SDS011;13927;51.534;11.866;2022-07-04T01:35:45;7.93;;;3.20;;
26181;SDS011;13927;51.534;11.866;2022-07-04T01:38:12;5.68;;;3.25;;
26181;SDS011;13927;51.534;11.866;2022-07-04T01:40:38;4.63;;;2.90;;
26181;SDS011;13927;51.534;11.866;2022-07-04T01:43:04;6.05;;;3.28;;
26181;SDS011;13927;51.534;11.866;2022-07-04T01:45:30;4.93;;;3.25;;
26181;SDS011;13927;51.534;11.866;2022-07-04T01:47:59;7.60;;;4.03;;
26181;SDS011;13927;51.534;11.866;2022-07-04T01:50:26;3.70;;;3.00;;
26181;SDS011;13927;51.534;11.866;2022-07-04T01:52:52;5.20;;;3.22;;
26181;SDS011;13927;51.534;11.866;2022-07-04T01:55:18;5.93;;;3.50;;
26181;SDS011;13927;51.534;11.866;2022-07-04T01:57:43;5.03;;;3.28;;
26181;SDS011;13927;51.534;11.866;2022-07-04T02:00:09;3.95;;;3.45;;
26181;SDS011;13927;51.534;11.866;2022-07-04T02:02:55;3.13;;;2.67;;
26181;SDS011;13927;51.534;11.866;2022-07-04T02:05:21;4.38;;;3.35;;
26181;SDS011;13927;51.534;11.866;2022-07-04T02:07:49;6.25;;;2.70;;
26181;SDS011;13927;51.534;11.866;2022-07-04T02:10:16;4.78;;;2.83;;
26181;SDS011;13927;51.534;11.866;2022-07-04T02:12:42;4.22;;;2.88;;
26181;SDS011;13927;51.534;11.866;2022-07-04T02:15:27;3.67;;;2.55;;
26181;SDS011;13927;51.534;11.866;2022-07-04T02:17:54;4.25;;;3.05;;
26181;SDS011;13927;51.534;11.866;2022-07-04T02:20:20;4.95;;;3.15;;
26181;SDS011;13927;51.534;11.866;2022-07-04T02:22:46;2.63;;;2.33;;
26181;SDS011;13927;51.534;11.866;2022-07-04T02:25:12;5.22;;;2.88;;
26181;SDS011;13927;51.534;11.866;2022-07-04T02:27:38;5.53;;;2.42;;
26181;SDS011;13927;51.534;11.866;2022-07-04T02:30:04;3.08;;;2.38;;
26181;SDS011;13927;51.534;11.866;2022-07-04T02:32:31;2.90;;;2.55;;
26181;SDS011;13927;51.534;11.866;2022-07-04T02:34:56;6.03;;;2.70;;
26181;SDS011;13927;51.534;11.866;2022-07-04T02:37:22;4.05;;;2.42;;
26181;SDS011;13927;51.534;11.866;2022-07-04T02:39:48;5.20;;;2.60;;
26181;SDS011;13927;51.534;11.866;2022-07-04T02:42:14;3.88;;;2.47;;
26181;SDS011;13927;51.534;11.866;2022-07-04T02:44:40;4.50;;;2.28;;
26181;SDS011;13927;51.534;11.866;2022-07-04T02:47:06;3.80;;;2.42;;
26181;SDS011;13927;51.534;11.866;2022-07-04T02:49:32;4.55;;;2.55;;
26181;SDS011;13927;51.534;11.866;2022-07-04T02:51:58;3.53;;;2.45;;
26181;SDS011;13927;51.534;11.866;2022-07-04T02:54:24;3.63;;;3.00;;
26181;SDS011;13927;51.534;11.866;2022-07-04T02:56:49;3.83;;;2.58;;
26181;SDS011;13927;51.534;11.866;2022-07-04T02:59:15;7.32;;;3.38;;
26181;SDS011;13927;51.534;11.866;2022-07-04T03:01:41;3.95;;;2.38;;
26181;SDS011;13927;51.534;11.866;2022-07-04T03:04:06;2.50;;;2.30;;
26181;SDS011;13927;51.534;11.866;2022-07-04T03:06:32;3.72;;;2.33;;
26181;SDS011;13927;51.534;11.866;2022-07-04T03:08:58;7.10;;;3.10;;
26181;SDS011;13927;51.534;11.866;2022-07-04T03:11:24;4.28;;;2.45;;
26181;SDS011;13927;51.534;11.866;2022-07-04T03:13:50;3.80;;;2.70;;
26181;SDS011;13927;51.534;11.866;2022-07-04T03:16:16;4.40;;;2.67;;
26181;SDS011;13927;51.534;11.866;2022-07-04T03:18:42;3.97;;;2.50;;
26181;SDS011;13927;51.534;11.866;2022-07-04T03:21:08;3.45;;;2.08;;
26181;SDS011;13927;51.534;11.866;2022-07-04T03:23:33;3.40;;;2.33;;
26181;SDS011;13927;51.534;11.866;2022-07-04T03:26:00;3.33;;;2.35;;
26181;SDS011;13927;51.534;11.866;2022-07-04T03:28:27;4.28;;;2.10;;
26181;SDS011;13927;51.534;11.866;2022-07-04T03:30:53;5.95;;;2.30;;
26181;SDS011;13927;51.534;11.866;2022-07-04T03:33:18;2.85;;;1.95;;
26181;SDS011;13927;51.534;11.866;2022-07-04T03:35:44;6.47;;;2.33;;
26181;SDS011;13927;51.534;11.866;2022-07-04T03:38:10;2.58;;;1.90;;
26181;SDS011;13927;51.534;11.866;2022-07-04T03:40:36;2.70;;;2.20;;
26181;SDS011;13927;51.534;11.866;2022-07-04T03:43:03;3.97;;;2.03;;
26181;SDS011;13927;51.534;11.866;2022-07-04T03:45:31;3.17;;;1.90;;
26181;SDS011;13927;51.534;11.866;2022-07-04T03:47:57;3.78;;;2.10;;
26181;SDS011;13927;51.534;11.866;2022-07-04T03:50:23;3.08;;;2.13;;
26181;SDS011;13927;51.534;11.866;2022-07-04T03:52:49;2.28;;;1.55;;
26181;SDS011;13927;51.534;11.866;2022-07-04T03:55:15;2.47;;;1.48;;
26181;SDS011;13927;51.534;11.866;2022-07-04T03:57:41;4.22;;;1.90;;
26181;SDS011;13927;51.534;11.866;2022-07-04T04:00:07;2.17;;;1.48;;
26181;SDS011;13927;51.534;11.866;2022-07-04T04:02:35;3.42;;;1.63;;
26181;SDS011;13927;51.534;11.866;2022-07-04T04:05:02;2.33;;;2.08;;
26181;SDS011;13927;51.534;11.866;2022-07-04T04:07:47;2.90;;;1.50;;
26181;SDS011;13927;51.534;11.866;2022-07-04T04:10:13;4.20;;;1.73;;
26181;SDS011;13927;51.534;11.866;2022-07-04T04:12:38;4.40;;;1.95;;
26181;SDS011;13927;51.534;11.866;2022-07-04T04:15:04;3.95;;;1.80;;
26181;SDS011;13927;51.534;11.866;2022-07-04T04:17:30;2.88;;;2.28;;
26181;SDS011;13927;51.534;11.866;2022-07-04T04:19:56;2.85;;;1.73;;
26181;SDS011;13927;51.534;11.866;2022-07-04T04:22:22;2.67;;;1.90;;
26181;SDS011;13927;51.534;11.866;2022-07-04T04:24:47;2.80;;;1.90;;
26181;SDS011;13927;51.534;11.866;2022-07-04T04:27:13;7.28;;;1.80;;
26181;SDS011;13927;51.534;11.866;2022-07-04T04:29:39;3.20;;;1.98;;
26181;SDS011;13927;51.534;11.866;2022-07-04T04:32:05;2.80;;;1.67;;
26181;SDS011;13927;51.534;11.866;2022-07-04T04:34:31;2.63;;;1.65;;
26181;SDS011;13927;51.534;11.866;2022-07-04T04:36:58;4.15;;;1.58;;
26181;SDS011;13927;51.534;11.866;2022-07-04T04:39:24;3.55;;;1.80;;
26181;SDS011;13927;51.534;11.866;2022-07-04T04:41:50;1.85;;;1.38;;
26181;SDS011;13927;51.534;11.866;2022-07-04T04:44:16;4.03;;;1.90;;
26181;SDS011;13927;51.534;11.866;2022-07-04T04:46:44;2.35;;;1.40;;
26181;SDS011;13927;51.534;11.866;2022-07-04T04:49:11;2.35;;;1.38;;
26181;SDS011;13927;51.534;11.866;2022-07-04T04:51:36;2.67;;;1.48;;
26181;SDS011;13927;51.534;11.866;2022-07-04T04:54:03;3.55;;;1.30;;
26181;SDS011;13927;51.534;11.866;2022-07-04T04:56:29;3.00;;;1.63;;
26181;SDS011;13927;51.534;11.866;2022-07-04T04:58:54;2.05;;;1.42;;
26181;SDS011;13927;51.534;11.866;2022-07-04T05:01:20;2.63;;;1.33;;
26181;SDS011;13927;51.534;11.866;2022-07-04T05:03:46;2.80;;;1.20;;
26181;SDS011;13927;51.534;11.866;2022-07-04T05:06:12;11.00;;;1.52;;
26181;SDS011;13927;51.534;11.866;2022-07-04T05:08:38;6.95;;;1.50;;
26181;SDS011;13927;51.534;11.866;2022-07-04T05:11:04;1.63;;;1.08;;
26181;SDS011;13927;51.534;11.866;2022-07-04T05:13:29;1.90;;;1.27;;
26181;SDS011;13927;51.534;11.866;2022-07-04T05:15:55;2.20;;;1.50;;
26181;SDS011;13927;51.534;11.866;2022-07-04T05:18:21;2.75;;;1.30;;
26181;SDS011;13927;51.534;11.866;2022-07-04T05:20:46;1.40;;;0.95;;
26181;SDS011;13927;51.534;11.866;2022-07-04T05:23:12;2.05;;;1.13;;
26181;SDS011;13927;51.534;11.866;2022-07-04T05:25:38;2.13;;;1.08;;
26181;SDS011;13927;51.534;11.866;2022-07-04T05:28:03;3.63;;;1.40;;
26181;SDS011;13927;51.534;11.866;2022-07-04T05:30:30;2.10;;;1.20;;
26181;SDS011;13927;51.534;11.866;2022-07-04T05:32:56;2.70;;;1.20;;
26181;SDS011;13927;51.534;11.866;2022-07-04T05:35:23;3.58;;;1.35;;
26181;SDS011;13927;51.534;11.866;2022-07-04T05:37:49;3.70;;;1.15;;
26181;SDS011;13927;51.534;11.866;2022-07-04T05:40:15;4.03;;;1.20;;
26181;SDS011;13927;51.534;11.866;2022-07-04T05:42:41;3.42;;;1.58;;
26181;SDS011;13927;51.534;11.866;2022-07-04T05:45:06;8.68;;;1.33;;
26181;SDS011;13927;51.534;11.866;2022-07-04T05:47:33;2.35;;;1.33;;
26181;SDS011;13927;51.534;11.866;2022-07-04T05:49:58;3.38;;;1.17;;
26181;SDS011;13927;51.534;11.866;2022-07-04T05:52:25;2.45;;;0.95;;
26181;SDS011;13927;51.534;11.866;2022-07-04T05:54:51;2.33;;;1.00;;
26181;SDS011;13927;51.534;11.866;2022-07-04T05:57:17;3.65;;;1.02;;
26181;SDS011;13927;51.534;11.866;2022-07-04T05:59:42;1.35;;;1.00;;
26181;SDS011;13927;51.534;11.866;2022-07-04T06:02:10;4.00;;;1.52;;
26181;SDS011;13927;51.534;11.866;2022-07-04T06:04:36;2.35;;;1.10;;
26181;SDS011;13927;51.534;11.866;2022-07-04T06:07:01;2.45;;;1.02;;
26181;SDS011;13927;51.534;11.866;2022-07-04T06:09:27;8.15;;;1.25;;
26181;SDS011;13927;51.534;11.866;2022-07-04T06:11:53;4.20;;;0.82;;
26181;SDS011;13927;51.534;11.866;2022-07-04T06:14:19;1.52;;;0.90;;
26181;SDS011;13927;51.534;11.866;2022-07-04T06:16:44;1.55;;;1.30;;
26181;SDS011;13927;51.534;11.866;2022-07-04T06:19:10;1.58;;;1.00;;
26181;SDS011;13927;51.534;11.866;2022-07-04T06:21:36;2.00;;;1.10;;
26181;SDS011;13927;51.534;11.866;2022-07-04T06:24:02;2.92;;;0.90;;
26181;SDS011;13927;51.534;11.866;2022-07-04T06:26:28;3.65;;;1.33;;
26181;SDS011;13927;51.534;11.866;2022-07-04T06:28:55;2.72;;;0.90;;
26181;SDS011;13927;51.534;11.866;2022-07-04T06:31:22;2.17;;;1.00;;
26181;SDS011;13927;51.534;11.866;2022-07-04T06:33:47;2.88;;;1.23;;
26181;SDS011;13927;51.534;11.866;2022-07-04T06:36:31;1.95;;;1.13;;
26181;SDS011;13927;51.534;11.866;2022-07-04T06:38:58;2.63;;;1.17;;
26181;SDS011;13927;51.534;11.866;2022-07-04T06:41:24;2.80;;;1.20;;
26181;SDS011;13927;51.534;11.866;2022-07-04T06:43:50;4.60;;;1.30;;
26181;SDS011;13927;51.534;11.866;2022-07-04T06:46:15;3.45;;;1.20;;
26181;SDS011;13927;51.534;11.866;2022-07-04T06:48:41;5.20;;;1.33;;
26181;SDS011;13927;51.534;11.866;2022-07-04T06:51:08;0.70;;;0.70;;
26181;SDS011;13927;51.534;11.866;2022-07-04T06:53:33;1.95;;;1.00;;
26181;SDS011;13927;51.534;11.866;2022-07-04T06:55:59;2.28;;;0.80;;
26181;SDS011;13927;51.534;11.866;2022-07-04T06:58:25;2.80;;;0.80;;
26181;SDS011;13927;51.534;11.866;2022-07-04T07:00:51;1.70;;;0.90;;
26181;SDS011;13927;51.534;11.866;2022-07-04T07:03:17;2.28;;;0.77;;
26181;SDS011;13927;51.534;11.866;2022-07-04T07:05:42;1.52;;;0.60;;
26181;SDS011;13927;51.534;11.866;2022-07-04T07:08:08;3.05;;;0.70;;
26181;SDS011;13927;51.534;11.866;2022-07-04T07:10:34;2.33;;;0.90;;
26181;SDS011;13927;51.534;11.866;2022-07-04T07:13:00;3.88;;;0.73;;
26181;SDS011;13927;51.534;11.866;2022-07-04T07:15:28;2.03;;;0.80;;
26181;SDS011;13927;51.534;11.866;2022-07-04T07:17:54;3.65;;;1.00;;
26181;SDS011;13927;51.534;11.866;2022-07-04T07:20:20;4.90;;;1.25;;
26181;SDS011;13927;51.534;11.866;2022-07-04T07:22:45;3.15;;;1.15;;
26181;SDS011;13927;51.534;11.866;2022-07-04T07:25:12;3.28;;;1.30;;
26181;SDS011;13927;51.534;11.866;2022-07-04T07:27:38;2.28;;;0.95;;
26181;SDS011;13927;51.534;11.866;2022-07-04T07:30:06;1.58;;;0.82;;
26181;SDS011;13927;51.534;11.866;2022-07-04T07:32:33;1.58;;;1.05;;
26181;SDS011;13927;51.534;11.866;2022-07-04T07:34:59;2.35;;;0.85;;
26181;SDS011;13927;51.534;11.866;2022-07-04T07:37:25;3.30;;;1.05;;
26181;SDS011;13927;51.534;11.866;2022-07-04T07:39:51;3.17;;;0.90;;
26181;SDS011;13927;51.534;11.866;2022-07-04T07:42:17;3.40;;;0.90;;
26181;SDS011;13927;51.534;11.866;2022-07-04T07:44:43;3.83;;;1.00;;
26181;SDS011;13927;51.534;11.866;2022-07-04T07:47:11;2.80;;;0.95;;
26181;SDS011;13927;51.534;11.866;2022-07-04T07:49:38;1.80;;;1.00;;
26181;SDS011;13927;51.534;11.866;2022-07-04T07:52:04;4.15;;;1.15;;
26181;SDS011;13927;51.534;11.866;2022-07-04T07:54:30;2.83;;;1.20;;
26181;SDS011;13927;51.534;11.866;2022-07-04T07:56:56;1.92;;;1.05;;
26181;SDS011;13927;51.534;11.866;2022-07-04T07:59:21;1.67;;;0.88;;
26181;SDS011;13927;51.534;11.866;2022-07-04T08:01:47;5.68;;;1.00;;
26181;SDS011;13927;51.534;11.866;2022-07-04T08:04:13;1.70;;;0.77;;
26181;SDS011;13927;51.534;11.866;2022-07-04T08:06:57;0.95;;;0.70;;
26181;SDS011;13927;51.534;11.866;2022-07-04T08:09:23;2.05;;;1.05;;
26181;SDS011;13927;51.534;11.866;2022-07-04T08:11:49;3.13;;;1.17;;
26181;SDS011;13927;51.534;11.866;2022-07-04T08:14:15;5.47;;;1.23;;
26181;SDS011;13927;51.534;11.866;2022-07-04T08:16:40;6.78;;;1.02;;
26181;SDS011;13927;51.534;11.866;2022-07-04T08:19:06;1.77;;;1.00;;
26181;SDS011;13927;51.534;11.866;2022-07-04T08:21:32;2.20;;;1.00;;
26181;SDS011;13927;51.534;11.866;2022-07-04T08:23:57;2.67;;;0.80;;
26181;SDS011;13927;51.534;11.866;2022-07-04T08:26:23;2.63;;;1.00;;
26181;SDS011;13927;51.534;11.866;2022-07-04T08:28:50;2.40;;;1.02;;
26181;SDS011;13927;51.534;11.866;2022-07-04T08:31:17;3.50;;;1.20;;
26181;SDS011;13927;51.534;11.866;2022-07-04T08:33:44;1.95;;;0.93;;
26181;SDS011;13927;51.534;11.866;2022-07-04T08:36:12;2.88;;;1.23;;
26181;SDS011;13927;51.534;11.866;2022-07-04T08:38:38;2.17;;;0.90;;
26181;SDS011;13927;51.534;11.866;2022-07-04T08:41:04;2.38;;;0.98;;
26181;SDS011;13927;51.534;11.866;2022-07-04T08:43:30;2.40;;;0.93;;
26181;SDS011;13927;51.534;11.866;2022-07-04T08:46:01;2.25;;;0.88;;
26181;SDS011;13927;51.534;11.866;2022-07-04T08:48:30;2.35;;;0.80;;
26181;SDS011;13927;51.534;11.866;2022-07-04T08:50:59;3.05;;;0.80;;
26181;SDS011;13927;51.534;11.866;2022-07-04T08:53:37;2.78;;;0.90;;
26181;SDS011;13927;51.534;11.866;2022-07-04T08:56:05;3.25;;;1.20;;
26181;SDS011;13927;51.534;11.866;2022-07-04T08:58:52;1.83;;;0.95;;
26181;SDS011;13927;51.534;11.866;2022-07-04T09:01:21;2.95;;;0.90;;
26181;SDS011;13927;51.534;11.866;2022-07-04T09:03:48;3.88;;;1.00;;
26181;SDS011;13927;51.534;11.866;2022-07-04T09:06:15;1.27;;;0.90;;
26181;SDS011;13927;51.534;11.866;2022-07-04T09:08:41;2.45;;;1.05;;
26181;SDS011;13927;51.534;11.866;2022-07-04T09:11:07;1.08;;;0.90;;
26181;SDS011;13927;51.534;11.866;2022-07-04T09:13:33;1.50;;;1.05;;
26181;SDS011;13927;51.534;11.866;2022-07-04T09:15:59;2.67;;;0.80;;
26181;SDS011;13927;51.534;11.866;2022-07-04T09:18:27;2.63;;;1.00;;
26181;SDS011;13927;51.534;11.866;2022-07-04T09:21:03;1.60;;;1.02;;
26181;SDS011;13927;51.534;11.866;2022-07-04T09:23:32;3.78;;;1.10;;
26181;SDS011;13927;51.534;11.866;2022-07-04T09:26:13;1.85;;;1.10;;
26181;SDS011;13927;51.534;11.866;2022-07-04T09:28:57;2.97;;;1.23;;
26181;SDS011;13927;51.534;11.866;2022-07-04T09:31:27;5.95;;;1.05;;
26181;SDS011;13927;51.534;11.866;2022-07-04T09:33:58;2.20;;;1.02;;
26181;SDS011;13927;51.534;11.866;2022-07-04T09:36:39;3.38;;;1.10;;
26181;SDS011;13927;51.534;11.866;2022-07-04T09:39:16;3.22;;;1.15;;
26181;SDS011;13927;51.534;11.866;2022-07-04T09:42:03;2.58;;;1.40;;
26181;SDS011;13927;51.534;11.866;2022-07-04T09:44:45;3.97;;;1.23;;
26181;SDS011;13927;51.534;11.866;2022-07-04T09:47:28;2.50;;;1.33;;
26181;SDS011;13927;51.534;11.866;2022-07-04T09:52:49;0.98;;;0.80;;
26181;SDS011;13927;51.534;11.866;2022-07-04T09:55:30;1.85;;;1.10;;
26181;SDS011;13927;51.534;11.866;2022-07-04T09:57:59;2.05;;;1.00;;
26181;SDS011;13927;51.534;11.866;2022-07-04T10:06:08;2.35;;;1.17;;
26181;SDS011;13927;51.534;11.866;2022-07-04T10:08:41;7.85;;;1.10;;
26181;SDS011;13927;51.534;11.866;2022-07-04T10:11:08;2.75;;;1.30;;
26181;SDS011;13927;51.534;11.866;2022-07-04T10:13:36;1.92;;;1.25;;
26181;SDS011;13927;51.534;11.866;2022-07-04T10:16:03;1.73;;;0.95;;
26181;SDS011;13927;51.534;11.866;2022-07-04T10:18:29;3.03;;;1.40;;
26181;SDS011;13927;51.534;11.866;2022-07-04T10:20:56;1.95;;;0.95;;
26181;SDS011;13927;51.534;11.866;2022-07-04T10:23:23;2.45;;;0.90;;
26181;SDS011;13927;51.534;11.866;2022-07-04T10:25:55;2.05;;;1.50;;
26181;SDS011;13927;51.534;11.866;2022-07-04T10:28:21;2.05;;;1.10;;
26181;SDS011;13927;51.534;11.866;2022-07-04T10:30:51;2.42;;;0.98;;
26181;SDS011;13927;51.534;11.866;2022-07-04T10:33:22;2.00;;;1.10;;
26181;SDS011;13927;51.534;11.866;2022-07-04T10:35:57;3.80;;;1.20;;
26181;SDS011;13927;51.534;11.866;2022-07-04T10:41:03;2.35;;;1.20;;
26181;SDS011;13927;51.534;11.866;2022-07-04T10:48:52;4.53;;;1.50;;
26181;SDS011;13927;51.534;11.866;2022-07-04T10:57:12;2.38;;;0.80;;
26181;SDS011;13927;51.534;11.866;2022-07-04T10:59:39;5.35;;;1.10;;
26181;SDS011;13927;51.534;11.866;2022-07-04T11:02:38;3.05;;;1.10;;
26181;SDS011;13927;51.534;11.866;2022-07-04T11:17:56;1.80;;;0.93;;
26181;SDS011;13927;51.534;11.866;2022-07-04T11:20:25;2.88;;;1.30;;
26181;SDS011;13927;51.534;11.866;2022-07-04T11:23:12;5.70;;;1.05;;
26181;SDS011;13927;51.534;11.866;2022-07-04T11:25:41;2.70;;;1.00;;
26181;SDS011;13927;51.534;11.866;2022-07-04T11:28:21;1.55;;;0.90;;
26181;SDS011;13927;51.534;11.866;2022-07-04T11:30:53;1.48;;;1.00;;
26181;SDS011;13927;51.534;11.866;2022-07-04T11:33:22;1.75;;;1.10;;
26181;SDS011;13927;51.534;11.866;2022-07-04T11:38:48;2.28;;;1.13;;
26181;SDS011;13927;51.534;11.866;2022-07-04T11:41:14;3.65;;;1.17;;
26181;SDS011;13927;51.534;11.866;2022-07-04T11:44:03;2.15;;;1.02;;
26181;SDS011;13927;51.534;11.866;2022-07-04T11:47:03;2.60;;;1.10;;
26181;SDS011;13927;51.534;11.866;2022-07-04T11:50:00;3.78;;;1.27;;
26181;SDS011;13927;51.534;11.866;2022-07-04T11:52:28;2.75;;;1.00;;
26181;SDS011;13927;51.534;11.866;2022-07-04T11:55:06;2.47;;;1.40;;
26181;SDS011;13927;51.534;11.866;2022-07-04T11:57:36;1.65;;;0.88;;
26181;SDS011;13927;51.534;11.866;2022-07-04T12:02:37;1.77;;;0.90;;
26181;SDS011;13927;51.534;11.866;2022-07-04T12:05:08;1.83;;;0.93;;
26181;SDS011;13927;51.534;11.866;2022-07-04T12:07:39;1.42;;;0.90;;
26181;SDS011;13927;51.534;11.866;2022-07-04T12:10:16;3.90;;;1.10;;
26181;SDS011;13927;51.534;11.866;2022-07-04T12:12:50;1.48;;;0.90;;
26181;SDS011;13927;51.534;11.866;2022-07-04T12:15:22;1.40;;;0.90;;
26181;SDS011;13927;51.534;11.866;2022-07-04T12:17:51;1.38;;;1.00;;
26181;SDS011;13927;51.534;11.866;2022-07-04T12:20:20;2.72;;;1.13;;
26181;SDS011;13927;51.534;11.866;2022-07-04T12:22:53;4.43;;;1.20;;
26181;SDS011;13927;51.534;11.866;2022-07-04T12:28:03;1.90;;;1.20;;
26181;SDS011;13927;51.534;11.866;2022-07-04T12:30:30;2.15;;;1.23;;
26181;SDS011;13927;51.534;11.866;2022-07-04T12:33:05;1.30;;;0.80;;
26181;SDS011;13927;51.534;11.866;2022-07-04T12:35:40;1.13;;;0.70;;
26181;SDS011;13927;51.534;11.866;2022-07-04T12:38:14;1.67;;;1.00;;
26181;SDS011;13927;51.534;11.866;2022-07-04T12:41:05;2.97;;;0.95;;
26181;SDS011;13927;51.534;11.866;2022-07-04T12:48:56;3.00;;;0.80;;
26181;SDS011;13927;51.534;11.866;2022-07-04T12:51:25;4.55;;;0.93;;
26181;SDS011;13927;51.534;11.866;2022-07-04T12:53:55;2.13;;;0.98;;
26181;SDS011;13927;51.534;11.866;2022-07-04T12:58:57;4.93;;;1.00;;
26181;SDS011;13927;51.534;11.866;2022-07-04T13:01:29;4.35;;;1.02;;
26181;SDS011;13927;51.534;11.866;2022-07-04T13:03:55;1.52;;;1.15;;
26181;SDS011;13927;51.534;11.866;2022-07-04T13:06:22;1.83;;;0.77;;
26181;SDS011;13927;51.534;11.866;2022-07-04T13:08:48;3.05;;;1.00;;
26181;SDS011;13927;51.534;11.866;2022-07-04T13:11:14;2.70;;;0.95;;
26181;SDS011;13927;51.534;11.866;2022-07-04T13:13:59;1.63;;;0.57;;
26181;SDS011;13927;51.534;11.866;2022-07-04T13:16:25;1.20;;;0.88;;
26181;SDS011;13927;51.534;11.866;2022-07-04T13:18:51;3.30;;;0.80;;
26181;SDS011;13927;51.534;11.866;2022-07-04T13:21:17;2.72;;;0.90;;
26181;SDS011;13927;51.534;11.866;2022-07-04T13:23:43;2.47;;;0.75;;
26181;SDS011;13927;51.534;11.866;2022-07-04T13:26:09;1.50;;;0.75;;
26181;SDS011;13927;51.534;11.866;2022-07-04T13:28:34;2.20;;;0.73;;
26181;SDS011;13927;51.534;11.866;2022-07-04T13:31:00;3.47;;;0.80;;
26181;SDS011;13927;51.534;11.866;2022-07-04T13:33:27;1.30;;;0.70;;
26181;SDS011;13927;51.534;11.866;2022-07-04T13:35:53;1.67;;;0.90;;
26181;SDS011;13927;51.534;11.866;2022-07-04T13:38:19;2.38;;;0.70;;
26181;SDS011;13927;51.534;11.866;2022-07-04T13:40:44;3.58;;;1.00;;
26181;SDS011;13927;51.534;11.866;2022-07-04T13:43:11;2.15;;;1.17;;
26181;SDS011;13927;51.534;11.866;2022-07-04T13:45:38;6.82;;;0.90;;
26181;SDS011;13927;51.534;11.866;2022-07-04T13:48:05;1.65;;;0.95;;
26181;SDS011;13927;51.534;11.866;2022-07-04T13:50:32;3.25;;;0.80;;
26181;SDS011;13927;51.534;11.866;2022-07-04T13:53:02;1.25;;;0.90;;
26181;SDS011;13927;51.534;11.866;2022-07-04T13:55:29;2.05;;;1.00;;
26181;SDS011;13927;51.534;11.866;2022-07-04T13:57:56;1.80;;;0.70;;
26181;SDS011;13927;51.534;11.866;2022-07-04T14:00:22;2.15;;;0.80;;
26181;SDS011;13927;51.534;11.866;2022-07-04T14:02:47;0.90;;;0.80;;
26181;SDS011;13927;51.534;11.866;2022-07-04T14:05:13;1.50;;;0.80;;
26181;SDS011;13927;51.534;11.866;2022-07-04T14:07:39;3.33;;;0.90;;
26181;SDS011;13927;51.534;11.866;2022-07-04T14:10:05;1.73;;;0.98;;
26181;SDS011;13927;51.534;11.866;2022-07-04T14:12:31;2.65;;;0.93;;
26181;SDS011;13927;51.534;11.866;2022-07-04T14:14:57;0.95;;;0.70;;
26181;SDS011;13927;51.534;11.866;2022-07-04T14:17:23;2.03;;;0.95;;
26181;SDS011;13927;51.534;11.866;2022-07-04T14:19:48;3.53;;;0.98;;
26181;SDS011;13927;51.534;11.866;2022-07-04T14:22:14;2.10;;;0.90;;
26181;SDS011;13927;51.534;11.866;2022-07-04T14:24:40;2.92;;;1.17;;
26181;SDS011;13927;51.534;11.866;2022-07-04T14:27:05;4.03;;;1.10;;
26181;SDS011;13927;51.534;11.866;2022-07-04T14:29:31;2.33;;;0.90;;
26181;SDS011;13927;51.534;11.866;2022-07-04T14:31:59;3.83;;;1.10;;
26181;SDS011;13927;51.534;11.866;2022-07-04T14:34:25;1.73;;;0.77;;
26181;SDS011;13927;51.534;11.866;2022-07-04T14:36:51;0.65;;;0.65;;
26181;SDS011;13927;51.534;11.866;2022-07-04T14:39:17;2.78;;;0.90;;
26181;SDS011;13927;51.534;11.866;2022-07-04T14:41:43;1.40;;;0.77;;
26181;SDS011;13927;51.534;11.866;2022-07-04T14:44:12;2.65;;;1.10;;
26181;SDS011;13927;51.534;11.866;2022-07-04T14:46:37;2.47;;;1.00;;
26181;SDS011;13927;51.534;11.866;2022-07-04T14:49:03;2.20;;;0.80;;
26181;SDS011;13927;51.534;11.866;2022-07-04T14:51:29;1.60;;;0.85;;
26181;SDS011;13927;51.534;11.866;2022-07-04T14:53:55;2.83;;;0.85;;
26181;SDS011;13927;51.534;11.866;2022-07-04T14:56:21;2.83;;;0.70;;
26181;SDS011;13927;51.534;11.866;2022-07-04T14:58:46;3.05;;;0.90;;
26181;SDS011;13927;51.534;11.866;2022-07-04T15:01:12;1.98;;;0.90;;
26181;SDS011;13927;51.534;11.866;2022-07-04T15:03:38;2.25;;;0.90;;
26181;SDS011;13927;51.534;11.866;2022-07-04T15:06:04;2.33;;;1.00;;
26181;SDS011;13927;51.534;11.866;2022-07-04T15:08:29;1.92;;;1.20;;
26181;SDS011;13927;51.534;11.866;2022-07-04T15:10:55;1.60;;;0.88;;
26181;SDS011;13927;51.534;11.866;2022-07-04T15:13:21;2.60;;;1.33;;
26181;SDS011;13927;51.534;11.866;2022-07-04T15:15:47;3.28;;;0.90;;
26181;SDS011;13927;51.534;11.866;2022-07-04T15:18:13;1.98;;;1.17;;
26181;SDS011;13927;51.534;11.866;2022-07-04T15:20:39;2.22;;;0.95;;
26181;SDS011;13927;51.534;11.866;2022-07-04T15:23:23;2.38;;;1.00;;
26181;SDS011;13927;51.534;11.866;2022-07-04T15:26:07;2.47;;;0.85;;
26181;SDS011;13927;51.534;11.866;2022-07-04T15:28:34;2.88;;;0.80;;